Terminal Aerodrome Forecast
Issued by NWS

Home | Current Version | Previous Version | Text Only | Print | Product List | Glossary On
Versions: 1 2 3 4 5 6 7 8 9 10 11 12 13 14 15 16 17 18 19 20 21 22 23 24 25 26 27 28 29 30 31 32 33 34 35 36 37
000
FTAK31 PANC 290525
TAFASN
TAF
PASN 290525Z 2906/3006 12010KT P6SM VCFG FEW003 SCT020
      TEMPO 2908/2912 1 1/2SM BR BKN003
     FM291200 10009KT 1 1/2SM BR BKN003
     FM291800 08010KT P6SM FEW003 BKN015=

USA.gov is the U.S. government's official web portal to all federal, state and local government web resources and services.